Time;durP1;ratioP1;P1;durP2;ratioP2;P2;SDS_P1;SDS_P2;PMS_P1;PMS_P2;Temp;Humidity;BMP_temperature;BMP_pressure;BME280_temperature;BME280_humidity;BME280_pressure;Samples;Min_cycle;Max_cycle;Signal;HPM_P1;HPM_P2
2023/12/19 00:02:50;;;;;;;52.15;20.55;;;6.40;90.10;;;;;;9167228;19;20141;-71
2023/12/19 00:05:56;;;;;;;47.03;19.52;;;6.50;90.20;;;;;;9173851;19;20018;-73
2023/12/19 00:09:03;;;;;;;54.65;20.45;;;6.50;90.20;;;;;;9174057;19;20376;-73
2023/12/19 00:12:09;;;;;;;44.28;20.08;;;6.40;90.20;;;;;;9175163;19;20100;-73
2023/12/19 00:15:18;;;;;;;52.35;19.95;;;6.50;90.20;;;;;;9171239;19;20354;-73
2023/12/19 00:18:26;;;;;;;50.60;19.95;;;6.50;90.20;;;;;;9172724;19;20382;-72
2023/12/19 00:21:34;;;;;;;46.28;20.02;;;6.50;90.20;;;;;;9171875;19;20014;-72
2023/12/19 00:24:40;;;;;;;46.95;20.15;;;6.50;90.20;;;;;;9172825;19;20014;-71
2023/12/19 00:27:48;;;;;;;44.13;19.92;;;6.50;90.20;;;;;;9173886;19;20095;-73
2023/12/19 00:30:53;;;;;;;45.10;19.98;;;6.50;90.20;;;;;;9173501;19;20023;-72
2023/12/19 00:34:03;;;;;;;41.13;18.67;;;6.50;90.30;;;;;;9173676;19;20022;-73
2023/12/19 00:37:09;;;;;;;36.03;17.75;;;6.50;90.30;;;;;;9173075;19;20021;-72
2023/12/19 00:40:17;;;;;;;46.17;18.92;;;6.60;90.30;;;;;;9171724;19;20488;-71
2023/12/19 00:43:22;;;;;;;45.35;19.52;;;6.50;90.20;;;;;;9172669;19;20018;-72
2023/12/19 00:46:30;;;;;;;44.72;19.00;;;6.50;90.30;;;;;;9174206;19;20026;-73
2023/12/19 00:49:38;;;;;;;36.08;17.95;;;6.50;90.30;;;;;;9169855;19;20513;-72
2023/12/19 00:52:45;;;;;;;41.60;17.70;;;6.50;90.30;;;;;;9170849;19;20395;-72
2023/12/19 00:55:51;;;;;;;37.30;17.33;;;6.60;90.50;;;;;;9172473;19;20018;-72
2023/12/19 00:58:59;;;;;;;40.28;18.95;;;6.60;90.50;;;;;;9170488;19;20112;-73
2023/12/19 01:02:04;;;;;;;39.80;17.00;;;6.60;90.30;;;;;;9166052;19;20458;-72
2023/12/19 01:05:14;;;;;;;44.40;17.35;;;6.60;90.40;;;;;;9170981;19;20014;-72
2023/12/19 01:08:21;;;;;;;34.17;16.20;;;6.60;90.60;;;;;;9172033;19;20039;-72
2023/12/19 01:11:29;;;;;;;32.03;16.35;;;6.70;90.50;;;;;;9172436;19;20669;-72
2023/12/19 01:14:34;;;;;;;34.17;16.58;;;6.60;90.40;;;;;;9171529;19;20019;-74
2023/12/19 01:17:42;;;;;;;39.90;18.48;;;6.60;90.70;;;;;;9170995;19;20011;-73
2023/12/19 01:20:51;;;;;;;37.67;17.02;;;6.60;90.70;;;;;;9169433;19;20763;-73
2023/12/19 01:23:58;;;;;;;31.85;15.40;;;6.70;90.90;;;;;;9169089;19;20475;-73
2023/12/19 01:27:04;;;;;;;46.05;17.75;;;6.70;91.10;;;;;;9174463;19;20598;-73
2023/12/19 01:30:12;;;;;;;37.45;17.48;;;6.80;91.70;;;;;;9180902;19;20698;-74
2023/12/19 01:33:18;;;;;;;40.40;16.70;;;6.80;92.80;;;;;;9179222;19;20022;-73
2023/12/19 01:36:28;;;;;;;37.03;16.38;;;6.80;93.50;;;;;;9176806;19;20352;-73
2023/12/19 01:39:33;;;;;;;42.70;17.98;;;7.00;93.50;;;;;;9177280;19;20464;-73
2023/12/19 01:42:41;;;;;;;39.80;17.75;;;6.90;93.10;;;;;;9180501;19;20016;-73
2023/12/19 01:45:48;;;;;;;38.30;17.60;;;6.70;90.60;;;;;;9178279;19;20018;-74
2023/12/19 01:48:57;;;;;;;41.22;17.15;;;6.70;90.50;;;;;;9177957;19;21549;-74
2023/12/19 01:52:06;;;;;;;35.00;16.65;;;6.70;90.50;;;;;;9178404;19;20086;-73
2023/12/19 01:55:16;;;;;;;39.15;16.08;;;6.70;90.50;;;;;;9176924;19;20010;-73
2023/12/19 01:58:22;;;;;;;42.47;16.73;;;6.70;90.50;;;;;;9177277;19;20416;-73
2023/12/19 02:08:48;;;;;;;37.15;16.70;;;6.90;92.50;;;;;;9171596;19;20455;-73
2023/12/19 02:11:54;;;;;;;33.17;15.80;;;7.10;91.70;;;;;;9178307;19;20048;-74
2023/12/19 02:15:10;;;;;;;32.67;14.63;;;6.70;90.80;;;;;;9177165;19;20052;-73
2023/12/19 02:18:16;;;;;;;35.15;16.15;;;6.70;90.40;;;;;;9178751;19;20361;-74
2023/12/19 02:21:30;;;;;;;31.67;14.77;;;6.80;90.40;;;;;;9176831;19;20463;-76
2023/12/19 02:24:43;;;;;;;29.75;14.45;;;6.70;90.50;;;;;;9179097;19;20018;-74
2023/12/19 02:27:55;;;;;;;32.97;16.08;;;6.80;90.50;;;;;;9176268;19;20086;-74
2023/12/19 02:31:00;;;;;;;27.20;14.40;;;6.80;90.50;;;;;;9177962;19;20018;-73
2023/12/19 02:34:08;;;;;;;31.35;14.70;;;6.80;90.50;;;;;;9178005;19;20007;-73
2023/12/19 02:37:13;;;;;;;30.33;14.07;;;6.70;90.50;;;;;;9178807;19;20025;-73
2023/12/19 02:40:24;;;;;;;34.25;16.33;;;6.80;90.50;;;;;;9176378;19;20015;-73
2023/12/19 02:43:30;;;;;;;33.42;14.95;;;6.90;90.50;;;;;;9179604;19;20025;-74
2023/12/19 02:46:37;;;;;;;31.67;15.48;;;6.90;90.50;;;;;;9178573;19;20018;-74
2023/12/19 02:49:45;;;;;;;31.88;15.98;;;6.90;90.50;;;;;;9178793;19;20014;-73
2023/12/19 02:52:53;;;;;;;32.40;14.35;;;6.90;90.50;;;;;;9177269;19;20349;-73
2023/12/19 02:56:01;;;;;;;30.85;14.80;;;6.90;90.50;;;;;;9178537;19;20121;-76
2023/12/19 02:59:09;;;;;;;28.60;14.23;;;6.90;90.50;;;;;;9176716;19;20007;-74
2023/12/19 03:02:14;;;;;;;28.40;15.40;;;6.90;90.50;;;;;;9171808;19;20489;-74
2023/12/19 03:05:22;;;;;;;33.03;14.75;;;6.90;90.50;;;;;;9177757;19;20014;-73
2023/12/19 03:08:28;;;;;;;31.15;14.15;;;6.90;90.50;;;;;;9173960;19;20791;-74
2023/12/19 03:11:40;;;;;;;33.00;14.43;;;6.90;90.50;;;;;;9179471;19;20019;-74
2023/12/19 03:14:46;;;;;;;36.38;15.38;;;6.90;90.50;;;;;;9175136;19;20015;-75
2023/12/19 03:17:58;;;;;;;33.78;15.05;;;6.90;90.50;;;;;;9173916;19;20018;-75
2023/12/19 03:21:08;;;;;;;30.30;14.65;;;7.10;90.50;;;;;;9177981;19;20037;-74
2023/12/19 03:24:16;;;;;;;29.33;13.90;;;6.90;90.50;;;;;;9176255;19;20017;-74
2023/12/19 03:27:25;;;;;;;29.02;12.98;;;6.90;90.50;;;;;;9175565;19;20491;-74
2023/12/19 03:30:33;;;;;;;25.75;12.75;;;7.00;90.50;;;;;;9176544;19;20014;-73
2023/12/19 03:33:44;;;;;;;27.45;13.80;;;7.00;90.60;;;;;;9178065;19;20023;-73
2023/12/19 03:36:56;;;;;;;26.92;12.98;;;6.90;90.50;;;;;;9175638;19;20006;-73
2023/12/19 03:40:06;;;;;;;30.17;14.23;;;7.00;90.60;;;;;;9173945;19;20038;-73
2023/12/19 03:43:26;;;;;;;24.45;11.90;;;7.00;90.50;;;;;;9175102;19;20014;-73
2023/12/19 03:46:32;;;;;;;23.35;11.88;;;7.10;90.60;;;;;;9176758;19;20014;-73
2023/12/19 03:49:45;;;;;;;23.52;12.88;;;6.90;90.50;;;;;;9175451;19;20374;-74
2023/12/19 03:52:56;;;;;;;26.88;11.43;;;7.00;90.50;;;;;;9174647;19;20010;-74
2023/12/19 03:56:06;;;;;;;25.80;13.05;;;7.00;90.50;;;;;;9176565;19;20381;-73
2023/12/19 03:59:16;;;;;;;25.52;12.18;;;7.00;90.60;;;;;;9172466;19;20022;-74
2023/12/19 04:02:26;;;;;;;23.38;11.85;;;7.00;90.50;;;;;;9170860;19;20696;-72
2023/12/19 04:05:37;;;;;;;22.70;11.73;;;7.00;90.60;;;;;;9175513;19;20026;-73
2023/12/19 04:08:45;;;;;;;21.10;10.98;;;7.00;90.60;;;;;;9176032;19;20475;-73
2023/12/19 04:11:53;;;;;;;25.92;11.95;;;7.00;90.60;;;;;;9170208;19;20019;-73
2023/12/19 04:15:08;;;;;;;24.63;11.90;;;7.00;90.60;;;;;;9175527;19;20387;-72
2023/12/19 04:18:15;;;;;;;28.08;13.02;;;7.00;90.60;;;;;;9175325;19;20365;-72
2023/12/19 04:21:23;;;;;;;23.52;11.50;;;7.00;90.60;;;;;;9174888;19;20014;-71
2023/12/19 04:24:29;;;;;;;24.20;12.13;;;7.10;90.60;;;;;;9170822;19;20018;-72
2023/12/19 04:27:36;;;;;;;25.10;12.23;;;7.00;90.60;;;;;;9174195;19;20014;-72
2023/12/19 04:30:45;;;;;;;25.58;11.98;;;7.00;90.60;;;;;;9172528;19;20022;-71
2023/12/19 04:33:52;;;;;;;27.50;14.00;;;7.00;90.60;;;;;;9172905;19;20015;-71
2023/12/19 04:37:03;;;;;;;25.02;12.00;;;7.00;90.60;;;;;;9173500;19;20026;-72
2023/12/19 04:40:11;;;;;;;28.27;12.25;;;7.00;90.60;;;;;;9172603;19;20010;-73
2023/12/19 04:43:17;;;;;;;24.13;12.15;;;7.00;90.60;;;;;;9173579;19;20034;-73
2023/12/19 04:46:27;;;;;;;24.33;11.75;;;7.00;90.60;;;;;;9173233;19;20006;-72
2023/12/19 04:49:32;;;;;;;26.00;11.50;;;7.00;90.60;;;;;;9174347;19;20101;-71
2023/12/19 04:52:41;;;;;;;19.17;10.43;;;7.00;90.60;;;;;;9173398;19;20021;-72
2023/12/19 04:55:47;;;;;;;23.90;11.38;;;7.00;90.60;;;;;;9170499;19;20045;-73
2023/12/19 04:58:55;;;;;;;20.35;10.82;;;7.10;90.70;;;;;;9173693;19;20026;-72
2023/12/19 05:02:03;;;;;;;22.88;10.13;;;7.10;90.70;;;;;;9171852;19;20431;-75
2023/12/19 05:05:11;;;;;;;28.30;12.60;;;7.10;90.70;;;;;;9181994;19;20006;-74
2023/12/19 05:08:17;;;;;;;23.90;11.32;;;7.10;90.70;;;;;;9175469;19;20018;-73
2023/12/19 05:11:27;;;;;;;21.13;10.05;;;7.10;90.70;;;;;;9179852;19;20428;-74
2023/12/19 05:14:32;;;;;;;20.70;10.57;;;7.10;90.70;;;;;;9183496;19;20053;-74
2023/12/19 05:17:43;;;;;;;23.60;10.95;;;7.10;90.70;;;;;;9179647;19;20015;-74
2023/12/19 05:20:52;;;;;;;25.20;11.57;;;7.10;90.70;;;;;;9178758;19;20027;-72
2023/12/19 05:24:00;;;;;;;26.27;11.80;;;7.10;90.70;;;;;;9179740;19;20021;-72
2023/12/19 05:27:06;;;;;;;22.75;10.80;;;7.10;90.70;;;;;;9180697;19;20022;-73
2023/12/19 05:30:15;;;;;;;22.98;11.23;;;7.20;90.70;;;;;;9182138;19;20499;-72
2023/12/19 05:33:23;;;;;;;20.85;10.38;;;7.20;90.70;;;;;;9180371;19;20022;-72
2023/12/19 05:36:33;;;;;;;23.25;11.30;;;7.20;90.70;;;;;;9179630;19;20022;-73
2023/12/19 05:39:45;;;;;;;22.80;10.77;;;7.20;90.70;;;;;;9177272;19;20018;-73
2023/12/19 05:42:57;;;;;;;24.25;10.15;;;7.20;90.70;;;;;;9179177;19;20015;-73
2023/12/19 05:46:03;;;;;;;19.17;10.02;;;7.20;90.70;;;;;;9182633;19;20023;-72
2023/12/19 05:49:13;;;;;;;20.48;10.32;;;7.20;90.70;;;;;;9176829;19;20018;-72
2023/12/19 05:52:19;;;;;;;25.05;9.48;;;7.20;90.70;;;;;;9181123;19;20014;-72
2023/12/19 05:55:27;;;;;;;19.95;10.05;;;7.20;90.70;;;;;;9180667;19;20007;-73
2023/12/19 05:58:33;;;;;;;19.48;9.98;;;7.20;90.80;;;;;;9177610;19;20031;-73
2023/12/19 06:01:46;;;;;;;18.27;9.00;;;7.20;90.80;;;;;;9180335;19;20455;-73
2023/12/19 06:04:54;;;;;;;16.15;8.43;;;7.20;90.80;;;;;;9173448;19;20369;-73
2023/12/19 06:08:03;;;;;;;18.88;8.63;;;7.20;90.80;;;;;;9179004;19;20070;-73
2023/12/19 06:11:09;;;;;;;17.17;8.00;;;7.30;90.80;;;;;;9179117;19;20014;-73
2023/12/19 06:14:16;;;;;;;16.70;8.10;;;6.80;90.70;;;;;;9178128;19;20024;-74
2023/12/19 06:17:22;;;;;;;15.05;7.55;;;7.30;90.80;;;;;;9179449;19;20491;-74
2023/12/19 06:20:33;;;;;;;13.82;6.70;;;7.30;90.80;;;;;;9177227;19;20010;-74
2023/12/19 06:23:40;;;;;;;12.80;6.97;;;7.30;90.80;;;;;;9178713;19;20106;-74
2023/12/19 06:26:48;;;;;;;12.90;6.93;;;7.40;90.80;;;;;;9179623;19;20014;-73
2023/12/19 06:29:54;;;;;;;11.07;6.05;;;7.40;90.80;;;;;;9178136;19;20039;-74
2023/12/19 06:33:05;;;;;;;10.90;5.78;;;7.40;90.80;;;;;;9177612;19;20010;-73
2023/12/19 06:36:29;;;;;;;8.15;4.93;;;7.40;90.80;;;;;;9178284;19;20022;-73
2023/12/19 06:39:38;;;;;;;10.68;5.40;;;7.40;90.80;;;;;;9176429;19;20007;-73
2023/12/19 06:42:44;;;;;;;10.35;5.20;;;7.40;90.80;;;;;;9178570;19;20041;-74
2023/12/19 06:45:55;;;;;;;6.68;4.07;;;7.40;90.80;;;;;;9177240;19;20010;-78
2023/12/19 06:49:01;;;;;;;7.82;4.50;;;7.40;90.80;;;;;;9179477;19;20022;-77
2023/12/19 06:52:12;;;;;;;9.13;4.85;;;7.40;90.80;;;;;;9179984;19;20488;-74
2023/12/19 06:55:18;;;;;;;8.10;4.10;;;7.50;91.00;;;;;;9179504;19;20010;-76
2023/12/19 06:58:26;;;;;;;8.35;4.10;;;7.40;90.90;;;;;;9179919;19;20015;-77
2023/12/19 07:01:31;;;;;;;5.85;4.07;;;7.30;90.80;;;;;;9176634;19;20029;-76
2023/12/19 07:04:39;;;;;;;6.35;3.63;;;7.40;91.10;;;;;;9172948;19;20014;-76
2023/12/19 07:07:51;;;;;;;5.13;3.45;;;7.50;90.90;;;;;;9172229;19;20011;-77
2023/12/19 07:10:59;;;;;;;5.93;3.60;;;7.50;90.90;;;;;;9176881;19;20010;-75
2023/12/19 07:14:04;;;;;;;5.25;3.45;;;7.50;90.90;;;;;;9179503;19;20489;-75
2023/12/19 07:17:13;;;;;;;5.50;3.95;;;7.50;90.90;;;;;;9177633;19;20018;-76
2023/12/19 07:20:19;;;;;;;8.82;4.43;;;7.50;90.90;;;;;;9176691;19;20485;-75
2023/12/19 07:23:32;;;;;;;6.00;3.92;;;7.50;90.90;;;;;;9176447;19;20021;-75
2023/12/19 07:26:39;;;;;;;7.43;4.47;;;7.50;90.90;;;;;;9177877;19;20006;-75
2023/12/19 07:29:47;;;;;;;8.55;4.53;;;7.50;90.90;;;;;;9176906;19;20019;-78
2023/12/19 07:32:53;;;;;;;6.85;4.22;;;7.50;90.90;;;;;;9176917;19;20020;-78
2023/12/19 07:36:00;;;;;;;8.13;4.90;;;7.50;90.90;;;;;;9178718;19;20026;-76
2023/12/19 07:39:10;;;;;;;8.38;5.43;;;7.60;91.00;;;;;;9175514;19;20042;-77
2023/12/19 07:42:17;;;;;;;9.07;5.43;;;7.60;90.90;;;;;;9176780;19;20054;-76
2023/12/19 07:45:23;;;;;;;7.88;4.78;;;7.60;90.90;;;;;;9177169;19;20798;-77
2023/12/19 07:48:31;;;;;;;10.23;6.03;;;7.50;90.90;;;;;;9179753;19;20013;-77
2023/12/19 07:51:37;;;;;;;9.82;5.57;;;7.60;91.00;;;;;;9180305;19;20030;-76
2023/12/19 07:54:48;;;;;;;12.90;6.43;;;7.60;90.90;;;;;;9177274;19;20029;-76
2023/12/19 07:57:53;;;;;;;9.52;6.28;;;7.60;91.00;;;;;;9180425;19;20018;-74
2023/12/19 08:01:01;;;;;;;12.23;6.68;;;7.70;91.00;;;;;;9176476;19;20384;-76
2023/12/19 08:04:07;;;;;;;10.35;6.28;;;7.60;90.90;;;;;;9173310;19;20015;-78
2023/12/19 08:07:20;;;;;;;11.80;6.88;;;7.70;91.00;;;;;;9175130;19;20082;-77
2023/12/19 08:10:28;;;;;;;11.05;6.95;;;7.70;91.00;;;;;;9177935;19;20066;-76
2023/12/19 08:13:37;;;;;;;13.05;7.57;;;7.60;91.00;;;;;;9177599;19;20082;-77
2023/12/19 08:16:44;;;;;;;15.25;8.15;;;7.70;91.10;;;;;;9178016;19;20715;-78
2023/12/19 08:19:53;;;;;;;16.85;8.40;;;7.70;91.10;;;;;;9177169;19;20082;-75
2023/12/19 08:22:59;;;;;;;13.82;8.35;;;7.70;91.10;;;;;;9175321;19;20021;-76
2023/12/19 08:26:13;;;;;;;17.50;8.40;;;7.70;91.10;;;;;;9177177;19;20017;-76
2023/12/19 08:29:21;;;;;;;18.65;8.75;;;7.80;91.10;;;;;;9177590;19;20019;-76
2023/12/19 08:32:32;;;;;;;15.57;8.13;;;7.80;91.10;;;;;;9178197;19;20021;-75
2023/12/19 08:35:48;;;;;;;18.10;8.95;;;7.90;91.10;;;;;;9178124;19;20373;-76
2023/12/19 08:38:55;;;;;;;19.00;8.63;;;7.80;91.10;;;;;;9187560;19;20032;-76
2023/12/19 08:42:04;;;;;;;13.93;8.15;;;7.90;91.10;;;;;;9183836;19;20038;-77
2023/12/19 08:45:18;;;;;;;17.25;9.13;;;8.00;91.20;;;;;;9183499;19;20011;-76
2023/12/19 08:48:24;;;;;;;16.00;8.90;;;8.00;91.20;;;;;;9185744;19;20021;-76
2023/12/19 08:51:32;;;;;;;15.70;8.52;;;8.00;91.20;;;;;;9182129;19;20015;-78
2023/12/19 08:54:38;;;;;;;14.50;8.50;;;8.00;91.20;;;;;;9185743;19;20070;-75
2023/12/19 08:57:50;;;;;;;17.30;9.73;;;8.00;91.20;;;;;;9182196;19;20010;-75
2023/12/19 09:00:57;;;;;;;20.60;9.38;;;8.00;91.20;;;;;;9185041;19;20014;-76
2023/12/19 09:04:05;;;;;;;17.90;9.77;;;8.00;91.20;;;;;;9180843;19;20028;-77
2023/12/19 09:07:11;;;;;;;19.67;10.70;;;8.10;91.20;;;;;;9180774;19;20030;-74
2023/12/19 09:10:19;;;;;;;19.38;10.27;;;8.10;91.20;;;;;;9183743;19;20026;-75
2023/12/19 09:13:28;;;;;;;20.60;11.25;;;8.10;91.20;;;;;;9182564;19;20025;-75
2023/12/19 09:16:35;;;;;;;21.83;11.43;;;8.20;91.20;;;;;;9183870;19;20014;-76
2023/12/19 09:19:44;;;;;;;28.20;11.70;;;8.20;91.50;;;;;;9178855;19;20026;-75
2023/12/19 09:22:53;;;;;;;26.65;13.38;;;8.40;91.30;;;;;;9182497;19;20022;-76
2023/12/19 09:25:58;;;;;;;23.77;13.07;;;8.20;91.30;;;;;;9183451;19;20384;-74
2023/12/19 09:29:08;;;;;;;25.73;12.68;;;8.30;91.30;;;;;;9183449;19;20037;-74
2023/12/19 09:32:16;;;;;;;26.00;13.88;;;8.30;91.30;;;;;;9182388;19;20010;-75
2023/12/19 09:35:23;;;;;;;23.15;12.73;;;8.30;91.30;;;;;;9181431;19;20022;-76
2023/12/19 09:38:29;;;;;;;27.75;14.07;;;8.30;91.30;;;;;;9182334;19;20006;-75
2023/12/19 09:41:37;;;;;;;24.10;12.63;;;8.40;91.30;;;;;;9182867;19;20021;-75
2023/12/19 09:44:46;;;;;;;26.38;12.57;;;8.50;91.40;;;;;;9183240;19;20019;-75
2023/12/19 09:48:02;;;;;;;21.70;12.48;;;8.40;91.30;;;;;;9179353;19;20014;-77
2023/12/19 09:51:17;;;;;;;27.10;12.88;;;8.50;91.50;;;;;;9184072;19;20456;-76
2023/12/19 09:54:26;;;;;;;22.67;12.77;;;8.50;91.30;;;;;;9183608;19;20014;-76
2023/12/19 09:57:35;;;;;;;26.10;11.20;;;8.50;91.30;;;;;;9180895;19;20017;-76
2023/12/19 10:00:46;;;;;;;19.48;11.55;;;8.50;91.40;;;;;;9179614;19;20023;-77
2023/12/19 10:03:55;;;;;;;22.30;12.05;;;8.50;91.30;;;;;;9177107;19;20029;-77
2023/12/19 10:07:04;;;;;;;24.88;10.70;;;8.60;91.30;;;;;;9179480;19;20054;-77
2023/12/19 10:10:12;;;;;;;21.85;11.43;;;8.60;91.30;;;;;;9182205;19;20018;-77
2023/12/19 10:13:33;;;;;;;21.23;12.05;;;8.60;91.30;;;;;;9183649;19;20007;-78
2023/12/19 10:16:45;;;;;;;18.45;10.40;;;8.60;91.40;;;;;;9181331;19;20056;-76
2023/12/19 10:19:56;;;;;;;20.75;11.52;;;8.60;91.40;;;;;;9181165;19;20014;-76
2023/12/19 10:23:06;;;;;;;23.30;11.25;;;8.60;91.50;;;;;;9179964;19;20011;-75
2023/12/19 10:26:15;;;;;;;19.67;10.50;;;8.60;91.60;;;;;;9180221;19;20013;-75
2023/12/19 10:29:36;;;;;;;19.65;10.80;;;8.70;91.40;;;;;;9181834;19;20014;-75
2023/12/19 10:32:49;;;;;;;20.40;11.27;;;8.70;91.40;;;;;;9178102;19;20014;-77
2023/12/19 10:35:56;;;;;;;20.17;10.38;;;8.70;91.40;;;;;;9179161;19;20026;-75
2023/12/19 10:39:07;;;;;;;17.33;9.93;;;8.70;91.40;;;;;;9181249;19;20018;-75
2023/12/19 10:42:17;;;;;;;17.95;10.55;;;8.70;91.40;;;;;;9179714;19;20486;-75
2023/12/19 10:45:27;;;;;;;17.15;9.13;;;9.30;91.60;;;;;;9177179;19;20011;-75
2023/12/19 10:48:37;;;;;;;17.95;10.75;;;8.80;91.40;;;;;;9180584;19;20384;-75
2023/12/19 10:51:53;;;;;;;19.35;9.32;;;8.80;91.40;;;;;;9179255;19;20014;-76
2023/12/19 10:55:08;;;;;;;15.15;9.18;;;8.80;91.60;;;;;;9178278;19;20464;-76
2023/12/19 10:58:29;;;;;;;15.07;9.73;;;8.80;91.40;;;;;;9177723;19;20031;-76
2023/12/19 11:01:40;;;;;;;15.60;9.15;;;8.90;91.40;;;;;;9176241;19;20938;-75
2023/12/19 11:05:00;;;;;;;17.00;8.77;;;8.80;91.40;;;;;;9169410;19;20029;-76
2023/12/19 11:08:14;;;;;;;14.65;8.68;;;8.80;91.40;;;;;;9178937;19;20086;-76
2023/12/19 11:11:32;;;;;;;11.85;7.55;;;8.80;91.40;;;;;;9177270;19;20048;-76
2023/12/19 11:14:38;;;;;;;13.30;7.85;;;8.80;91.40;;;;;;9179003;19;20026;-75
2023/12/19 11:17:56;;;;;;;11.93;7.38;;;8.80;91.40;;;;;;9177828;19;20022;-75
2023/12/19 11:21:08;;;;;;;11.45;7.53;;;8.80;91.40;;;;;;9179280;19;20025;-75
2023/12/19 11:24:26;;;;;;;15.82;7.47;;;8.80;91.50;;;;;;9171973;19;20021;-73
2023/12/19 11:27:40;;;;;;;14.23;8.23;;;8.90;91.50;;;;;;9174261;19;20032;-76
2023/12/19 11:30:49;;;;;;;11.20;7.05;;;8.90;91.40;;;;;;9178220;19;20567;-75
2023/12/19 11:33:57;;;;;;;9.85;6.70;;;8.90;91.50;;;;;;9177478;19;20011;-76
2023/12/19 11:37:11;;;;;;;;;;;8.80;91.40;;;;;;9179406;19;20015;-76
2023/12/19 11:40:51;;;;;;;9.38;6.47;;;8.90;91.40;;;;;;9167348;19;19922;-75
2023/12/19 11:44:00;;;;;;;10.60;5.95;;;8.90;91.70;;;;;;9174514;19;20030;-76
2023/12/19 11:47:18;;;;;;;11.80;6.07;;;8.90;91.40;;;;;;9176077;19;20377;-76
2023/12/19 11:50:49;;;;;;;13.48;6.80;;;8.90;91.50;;;;;;9177258;19;20022;-77
2023/12/19 11:53:58;;;;;;;11.60;7.38;;;8.90;91.50;;;;;;9176312;19;20013;-76
2023/12/19 11:57:06;;;;;;;11.18;7.00;;;9.00;91.50;;;;;;9177395;19;20025;-74
2023/12/19 12:00:15;;;;;;;14.15;6.43;;;8.90;91.50;;;;;;9175210;19;20030;-77
2023/12/19 12:03:23;;;;;;;11.55;6.85;;;9.00;91.40;;;;;;9172589;19;20022;-77
2023/12/19 12:06:29;;;;;;;10.30;6.68;;;9.00;91.50;;;;;;9175966;19;20018;-75
2023/12/19 12:09:41;;;;;;;8.77;6.00;;;9.00;91.50;;;;;;9174988;19;20034;-76
2023/12/19 12:12:48;;;;;;;10.10;5.95;;;9.00;91.50;;;;;;9173838;19;20014;-75
2023/12/19 12:15:56;;;;;;;10.30;6.85;;;9.10;91.50;;;;;;9175016;19;20026;-74
2023/12/19 12:19:12;;;;;;;7.75;5.45;;;9.00;91.40;;;;;;9172441;19;20015;-75
2023/12/19 12:22:20;;;;;;;9.60;5.85;;;9.00;91.40;;;;;;9172726;19;20018;-74
2023/12/19 12:25:28;;;;;;;9.10;5.57;;;9.00;91.40;;;;;;9172676;19;20014;-74
2023/12/19 12:28:36;;;;;;;8.55;5.45;;;9.00;91.40;;;;;;9174036;19;20424;-74
2023/12/19 12:31:43;;;;;;;9.48;6.30;;;9.10;91.40;;;;;;9174597;19;20402;-74
2023/12/19 12:34:51;;;;;;;9.75;5.47;;;9.10;91.50;;;;;;9174667;19;20022;-74
2023/12/19 12:38:01;;;;;;;8.88;5.90;;;9.00;91.40;;;;;;9172942;19;20369;-72
2023/12/19 12:41:13;;;;;;;9.02;5.68;;;9.00;91.50;;;;;;9175479;19;20018;-73
2023/12/19 12:44:19;;;;;;;10.18;5.50;;;9.10;91.50;;;;;;9172857;19;20378;-74
2023/12/19 12:47:30;;;;;;;11.05;5.88;;;9.00;91.50;;;;;;9175919;19;20018;-75
2023/12/19 12:50:36;;;;;;;8.95;5.43;;;9.10;91.50;;;;;;9175703;19;20071;-74
2023/12/19 12:53:44;;;;;;;8.70;5.85;;;9.10;91.50;;;;;;9173948;19;20048;-73
2023/12/19 12:56:53;;;;;;;7.15;5.07;;;9.00;91.50;;;;;;9173552;19;20021;-74
2023/12/19 13:00:03;;;;;;;7.00;5.18;;;9.10;91.50;;;;;;9174105;19;20033;-75
2023/12/19 13:03:23;;;;;;;7.95;5.15;;;9.10;91.50;;;;;;9171592;19;20015;-73
2023/12/19 13:06:41;;;;;;;7.95;5.68;;;9.10;91.50;;;;;;9174300;19;20010;-73
2023/12/19 13:09:54;;;;;;;6.95;4.90;;;9.10;91.50;;;;;;9174366;19;20485;-73
2023/12/19 13:13:11;;;;;;;7.93;4.88;;;9.10;91.50;;;;;;9172160;19;20019;-73
2023/12/19 13:16:24;;;;;;;10.23;5.30;;;9.20;91.50;;;;;;9171764;19;20340;-74
2023/12/19 13:19:33;;;;;;;10.50;5.07;;;9.10;91.50;;;;;;9173340;19;20014;-73
2023/12/19 13:22:40;;;;;;;7.10;5.07;;;9.10;91.50;;;;;;9176768;19;20025;-73
2023/12/19 13:25:48;;;;;;;12.02;4.85;;;9.10;91.60;;;;;;9181840;19;20018;-73
2023/12/19 13:28:57;;;;;;;7.07;4.88;;;9.20;91.50;;;;;;9180477;19;20010;-72
2023/12/19 13:32:04;;;;;;;8.70;4.75;;;9.20;91.50;;;;;;9180068;19;20018;-73
2023/12/19 13:35:11;;;;;;;8.23;4.85;;;9.10;91.50;;;;;;9180193;19;21783;-74
2023/12/19 13:38:19;;;;;;;7.15;5.00;;;9.20;91.50;;;;;;9179108;19;20018;-73
2023/12/19 13:41:25;;;;;;;7.30;4.68;;;9.00;91.50;;;;;;9178547;19;20367;-73
2023/12/19 13:44:36;;;;;;;7.82;4.55;;;9.20;91.50;;;;;;9179146;19;20074;-74
2023/12/19 13:47:42;;;;;;;6.57;4.07;;;9.20;91.50;;;;;;9178622;19;20018;-75
2023/12/19 13:50:50;;;;;;;6.03;4.70;;;9.10;91.50;;;;;;9179905;19;20015;-74
2023/12/19 13:53:59;;;;;;;6.35;4.15;;;9.20;91.50;;;;;;9180154;19;20018;-74
2023/12/19 13:57:09;;;;;;;4.85;3.80;;;9.20;91.50;;;;;;9178914;19;20019;-74
2023/12/19 14:00:18;;;;;;;4.25;3.20;;;9.20;91.70;;;;;;9180958;19;20014;-74
2023/12/19 14:03:40;;;;;;;7.93;4.05;;;9.10;91.50;;;;;;9173625;19;20040;-74
2023/12/19 14:06:47;;;;;;;5.65;3.50;;;9.20;91.50;;;;;;9179333;19;20026;-73
2023/12/19 14:09:54;;;;;;;5.57;3.63;;;9.10;91.50;;;;;;9179730;19;20026;-73
2023/12/19 14:13:03;;;;;;;4.75;3.50;;;9.20;91.50;;;;;;9179926;19;20086;-73
2023/12/19 14:16:15;;;;;;;6.80;4.15;;;9.10;91.50;;;;;;9179036;19;20026;-73
2023/12/19 14:19:21;;;;;;;4.35;3.58;;;9.10;91.50;;;;;;9177680;19;20377;-73
2023/12/19 14:22:29;;;;;;;7.28;3.80;;;9.10;91.50;;;;;;9178957;19;20376;-74
2023/12/19 14:25:37;;;;;;;8.43;3.65;;;9.10;91.50;;;;;;9178666;19;20031;-73
2023/12/19 14:28:50;;;;;;;7.30;4.28;;;9.10;91.50;;;;;;9180062;19;20744;-74
2023/12/19 14:31:58;;;;;;;4.97;3.22;;;9.20;91.60;;;;;;9180997;19;20484;-74
2023/12/19 14:35:08;;;;;;;4.40;3.40;;;9.20;91.60;;;;;;9178213;19;20014;-73
2023/12/19 14:38:15;;;;;;;4.05;3.22;;;9.20;91.60;;;;;;9178104;19;20056;-74
2023/12/19 14:41:22;;;;;;;4.25;3.38;;;9.20;91.50;;;;;;9177974;19;20041;-73
2023/12/19 14:44:29;;;;;;;6.35;3.25;;;9.20;91.50;;;;;;9179188;19;20014;-74
2023/12/19 14:47:39;;;;;;;6.35;3.20;;;9.20;91.50;;;;;;9179454;19;20025;-73
2023/12/19 14:50:45;;;;;;;4.60;3.20;;;9.20;91.50;;;;;;9178940;19;20044;-73
2023/12/19 14:53:56;;;;;;;4.35;3.20;;;9.20;91.50;;;;;;9178784;19;20029;-73
2023/12/19 14:57:02;;;;;;;4.95;3.67;;;9.20;91.50;;;;;;9179711;19;20021;-75
2023/12/19 15:00:14;;;;;;;5.72;3.63;;;9.20;91.50;;;;;;9177885;19;20018;-71
2023/12/19 15:03:22;;;;;;;6.20;3.92;;;9.30;91.60;;;;;;9175368;19;20010;-73
2023/12/19 15:06:30;;;;;;;5.93;3.90;;;9.20;91.50;;;;;;9175974;19;20006;-74
2023/12/19 15:09:38;;;;;;;4.40;3.38;;;9.30;91.60;;;;;;9177464;19;20103;-74
2023/12/19 15:12:52;;;;;;;3.25;2.63;;;9.30;91.50;;;;;;9177907;19;20026;-74
2023/12/19 15:15:58;;;;;;;5.68;3.83;;;9.30;91.60;;;;;;9179669;19;20014;-75
2023/12/19 15:19:08;;;;;;;5.18;3.42;;;9.30;91.50;;;;;;9177497;19;20020;-74
2023/12/19 15:22:14;;;;;;;4.18;3.30;;;9.30;91.50;;;;;;9176590;19;20017;-73
2023/12/19 15:25:22;;;;;;;4.90;3.58;;;9.40;91.50;;;;;;9175064;19;20345;-75
2023/12/19 15:28:28;;;;;;;5.65;4.03;;;9.30;91.40;;;;;;9177445;19;20018;-75
2023/12/19 15:31:41;;;;;;;4.75;3.78;;;9.30;91.40;;;;;;9177815;19;20085;-74
2023/12/19 15:34:50;;;;;;;5.32;3.72;;;9.30;91.50;;;;;;9178845;19;20029;-75
2023/12/19 15:37:57;;;;;;;6.25;4.50;;;9.30;91.40;;;;;;9177907;19;20034;-74
2023/12/19 15:41:03;;;;;;;5.25;3.80;;;9.30;91.40;;;;;;9176786;19;20007;-74
2023/12/19 15:44:11;;;;;;;7.35;4.40;;;9.30;91.40;;;;;;9177125;19;20022;-75
2023/12/19 15:47:17;;;;;;;6.82;4.57;;;9.30;91.50;;;;;;9174078;19;20039;-75
2023/12/19 15:50:33;;;;;;;7.28;4.78;;;9.20;91.40;;;;;;9175832;19;20360;-73
2023/12/19 15:53:39;;;;;;;6.35;4.25;;;9.30;91.40;;;;;;9177156;19;20723;-74
2023/12/19 15:56:47;;;;;;;6.25;4.57;;;9.20;91.40;;;;;;9174450;19;20026;-73
2023/12/19 15:59:53;;;;;;;7.05;4.72;;;9.30;91.40;;;;;;9175431;19;20019;-74
2023/12/19 16:03:00;;;;;;;11.32;5.30;;;9.30;91.40;;;;;;9171215;19;20006;-74
2023/12/19 16:06:09;;;;;;;7.65;5.07;;;9.30;91.50;;;;;;9174276;19;20015;-75
2023/12/19 16:09:17;;;;;;;8.23;5.28;;;9.30;91.50;;;;;;9175241;19;20015;-73
2023/12/19 16:12:22;;;;;;;7.18;5.13;;;9.30;91.40;;;;;;9175350;19;20011;-74
2023/12/19 16:15:30;;;;;;;11.27;6.18;;;9.50;91.60;;;;;;9175875;19;20350;-74
2023/12/19 16:18:37;;;;;;;11.15;5.55;;;9.30;91.50;;;;;;9174711;19;20019;-74
2023/12/19 16:21:47;;;;;;;7.13;5.63;;;9.30;91.50;;;;;;9174546;19;20010;-74
2023/12/19 16:24:55;;;;;;;9.55;5.47;;;9.30;91.50;;;;;;9173360;19;20026;-74
2023/12/19 16:28:03;;;;;;;8.52;5.65;;;9.30;91.50;;;;;;9171875;19;20011;-74
2023/12/19 16:31:15;;;;;;;8.50;6.47;;;9.30;91.50;;;;;;9173498;19;20018;-74